Lopez Island, Washington
Current Conditions -  °F | °C
As of 4:15 PM on Monday 24 Nov 2014 (Local Time) from KFHR Reporting Station
Overcast Overcast  
Wind Chill: 43°   Ceiling: 800
Heat Index: 48°   Visibility: 10mi
Dew Point: 45°   Wind: 10mph
Humidity: 89%   Direction: 100°E
Pressure: 30.1"   Gusts: NA
Location:  48.51°N, 122.91°W
Report Text: KFHR 250015Z AUTO 10009KT 10SM OVC008 09/07 A3010 RMK AO2 RAE14 CIG 006V011 P0000 T00890072
Loading
Personal Weather Stations






























Interactive Weather Map New forecast layout! Learn more

10-Day Weather Forecast

Advertisements
Track Severe Weather on mobile